sensor_id;sensor_type;location;lat;lon;timestamp;P1;durP1;ratioP1;P2;durP2;ratioP2
74074;SDS011;62428;51.412;5.432;2023-04-12T00:01:18;7.90;;;0.50;;
74074;SDS011;62428;51.412;5.432;2023-04-12T00:03:44;7.53;;;1.02;;
74074;SDS011;62428;51.412;5.432;2023-04-12T00:06:14;6.70;;;0.93;;
74074;SDS011;62428;51.412;5.432;2023-04-12T00:08:41;5.85;;;0.90;;
74074;SDS011;62428;51.412;5.432;2023-04-12T00:11:10;7.53;;;0.60;;
74074;SDS011;62428;51.412;5.432;2023-04-12T00:13:36;3.00;;;0.40;;
74074;SDS011;62428;51.412;5.432;2023-04-12T00:16:01;4.30;;;0.40;;
74074;SDS011;62428;51.412;5.432;2023-04-12T00:18:26;3.10;;;0.47;;
74074;SDS011;62428;51.412;5.432;2023-04-12T00:20:52;3.13;;;0.93;;
74074;SDS011;62428;51.412;5.432;2023-04-12T00:23:18;5.17;;;0.37;;
74074;SDS011;62428;51.412;5.432;2023-04-12T00:25:44;6.18;;;0.50;;
74074;SDS011;62428;51.412;5.432;2023-04-12T00:28:10;4.43;;;0.53;;
74074;SDS011;62428;51.412;5.432;2023-04-12T00:30:35;4.60;;;0.57;;
74074;SDS011;62428;51.412;5.432;2023-04-12T00:33:01;4.45;;;0.55;;
74074;SDS011;62428;51.412;5.432;2023-04-12T00:35:26;3.17;;;0.60;;
74074;SDS011;62428;51.412;5.432;2023-04-12T00:37:51;4.43;;;0.40;;
74074;SDS011;62428;51.412;5.432;2023-04-12T00:40:17;2.67;;;0.40;;
74074;SDS011;62428;51.412;5.432;2023-04-12T00:42:42;2.70;;;0.50;;
74074;SDS011;62428;51.412;5.432;2023-04-12T00:45:07;8.07;;;0.50;;
74074;SDS011;62428;51.412;5.432;2023-04-12T00:47:34;4.80;;;0.50;;
74074;SDS011;62428;51.412;5.432;2023-04-12T00:50:01;4.40;;;0.60;;
74074;SDS011;62428;51.412;5.432;2023-04-12T00:52:28;9.10;;;0.63;;
74074;SDS011;62428;51.412;5.432;2023-04-12T00:54:59;5.53;;;0.63;;
74074;SDS011;62428;51.412;5.432;2023-04-12T00:57:27;2.72;;;0.70;;
74074;SDS011;62428;51.412;5.432;2023-04-12T00:59:57;9.13;;;0.70;;
74074;SDS011;62428;51.412;5.432;2023-04-12T01:02:23;3.97;;;0.93;;
74074;SDS011;62428;51.412;5.432;2023-04-12T01:04:48;3.50;;;0.40;;
74074;SDS011;62428;51.412;5.432;2023-04-12T01:07:22;4.22;;;0.60;;
74074;SDS011;62428;51.412;5.432;2023-04-12T01:10:12;5.93;;;0.82;;
74074;SDS011;62428;51.412;5.432;2023-04-12T01:12:48;4.65;;;0.60;;
74074;SDS011;62428;51.412;5.432;2023-04-12T01:15:21;4.50;;;0.73;;
74074;SDS011;62428;51.412;5.432;2023-04-12T01:20:22;3.85;;;1.05;;
74074;SDS011;62428;51.412;5.432;2023-04-12T01:25:50;6.88;;;0.68;;
74074;SDS011;62428;51.412;5.432;2023-04-12T01:28:32;6.40;;;0.60;;
74074;SDS011;62428;51.412;5.432;2023-04-12T01:31:01;4.65;;;0.57;;
74074;SDS011;62428;51.412;5.432;2023-04-12T01:33:28;4.30;;;0.60;;
74074;SDS011;62428;51.412;5.432;2023-04-12T01:35:59;2.92;;;0.50;;
74074;SDS011;62428;51.412;5.432;2023-04-12T01:38:27;6.70;;;0.82;;
74074;SDS011;62428;51.412;5.432;2023-04-12T01:40:53;6.23;;;0.70;;
74074;SDS011;62428;51.412;5.432;2023-04-12T01:43:19;4.40;;;0.43;;
74074;SDS011;62428;51.412;5.432;2023-04-12T01:45:45;3.67;;;0.43;;
74074;SDS011;62428;51.412;5.432;2023-04-12T01:48:10;5.55;;;0.90;;
74074;SDS011;62428;51.412;5.432;2023-04-12T01:53:48;3.35;;;0.57;;
74074;SDS011;62428;51.412;5.432;2023-04-12T01:56:18;4.88;;;0.47;;
74074;SDS011;62428;51.412;5.432;2023-04-12T01:58:46;5.22;;;0.55;;
74074;SDS011;62428;51.412;5.432;2023-04-12T02:01:15;2.35;;;0.40;;
74074;SDS011;62428;51.412;5.432;2023-04-12T02:03:43;5.13;;;0.50;;
74074;SDS011;62428;51.412;5.432;2023-04-12T02:06:13;4.90;;;0.50;;
74074;SDS011;62428;51.412;5.432;2023-04-12T02:08:40;4.22;;;0.57;;
74074;SDS011;62428;51.412;5.432;2023-04-12T02:11:11;3.87;;;0.50;;
74074;SDS011;62428;51.412;5.432;2023-04-12T02:13:38;5.43;;;0.50;;
74074;SDS011;62428;51.412;5.432;2023-04-12T02:16:04;4.13;;;0.40;;
74074;SDS011;62428;51.412;5.432;2023-04-12T02:18:31;5.45;;;0.50;;
74074;SDS011;62428;51.412;5.432;2023-04-12T02:20:59;4.13;;;0.40;;
74074;SDS011;62428;51.412;5.432;2023-04-12T02:23:24;4.73;;;0.40;;
74074;SDS011;62428;51.412;5.432;2023-04-12T02:25:50;3.00;;;0.60;;
74074;SDS011;62428;51.412;5.432;2023-04-12T02:28:15;3.45;;;0.63;;
74074;SDS011;62428;51.412;5.432;2023-04-12T02:30:40;3.75;;;0.60;;
74074;SDS011;62428;51.412;5.432;2023-04-12T02:33:06;0.80;;;0.30;;
74074;SDS011;62428;51.412;5.432;2023-04-12T02:35:33;1.97;;;0.30;;
74074;SDS011;62428;51.412;5.432;2023-04-12T02:38:00;1.20;;;0.20;;
74074;SDS011;62428;51.412;5.432;2023-04-12T02:40:27;3.47;;;0.40;;
74074;SDS011;62428;51.412;5.432;2023-04-12T02:42:53;2.90;;;0.60;;
74074;SDS011;62428;51.412;5.432;2023-04-12T02:45:18;3.85;;;0.30;;
74074;SDS011;62428;51.412;5.432;2023-04-12T02:47:43;3.55;;;0.47;;
74074;SDS011;62428;51.412;5.432;2023-04-12T02:50:09;3.13;;;0.50;;
74074;SDS011;62428;51.412;5.432;2023-04-12T02:52:34;3.27;;;0.40;;
74074;SDS011;62428;51.412;5.432;2023-04-12T02:55:00;3.30;;;0.43;;
74074;SDS011;62428;51.412;5.432;2023-04-12T02:57:25;1.77;;;0.30;;
74074;SDS011;62428;51.412;5.432;2023-04-12T02:59:50;2.78;;;0.40;;
74074;SDS011;62428;51.412;5.432;2023-04-12T03:02:17;3.17;;;0.47;;
74074;SDS011;62428;51.412;5.432;2023-04-12T03:04:43;4.78;;;0.45;;
74074;SDS011;62428;51.412;5.432;2023-04-12T03:07:11;2.25;;;0.40;;
74074;SDS011;62428;51.412;5.432;2023-04-12T03:09:37;3.42;;;0.32;;
74074;SDS011;62428;51.412;5.432;2023-04-12T03:12:03;4.63;;;0.40;;
74074;SDS011;62428;51.412;5.432;2023-04-12T03:14:28;2.83;;;0.40;;
74074;SDS011;62428;51.412;5.432;2023-04-12T03:16:54;1.33;;;0.30;;
74074;SDS011;62428;51.412;5.432;2023-04-12T03:19:20;3.45;;;0.30;;
74074;SDS011;62428;51.412;5.432;2023-04-12T03:21:45;3.97;;;0.40;;
74074;SDS011;62428;51.412;5.432;2023-04-12T03:24:11;4.50;;;0.47;;
74074;SDS011;62428;51.412;5.432;2023-04-12T03:26:36;4.10;;;0.60;;
74074;SDS011;62428;51.412;5.432;2023-04-12T03:29:02;3.73;;;0.30;;
74074;SDS011;62428;51.412;5.432;2023-04-12T03:31:32;2.60;;;0.50;;
74074;SDS011;62428;51.412;5.432;2023-04-12T03:33:58;1.75;;;0.30;;
74074;SDS011;62428;51.412;5.432;2023-04-12T03:36:24;3.30;;;0.30;;
74074;SDS011;62428;51.412;5.432;2023-04-12T03:38:51;4.43;;;0.57;;
74074;SDS011;62428;51.412;5.432;2023-04-12T03:41:16;1.33;;;0.30;;
74074;SDS011;62428;51.412;5.432;2023-04-12T03:43:42;2.67;;;0.38;;
74074;SDS011;62428;51.412;5.432;2023-04-12T03:46:07;2.00;;;0.30;;
74074;SDS011;62428;51.412;5.432;2023-04-12T03:48:33;2.67;;;0.40;;
74074;SDS011;62428;51.412;5.432;2023-04-12T03:50:58;3.43;;;0.40;;
74074;SDS011;62428;51.412;5.432;2023-04-12T03:53:24;3.22;;;0.40;;
74074;SDS011;62428;51.412;5.432;2023-04-12T03:55:55;2.10;;;0.30;;
74074;SDS011;62428;51.412;5.432;2023-04-12T03:58:20;3.15;;;0.30;;
74074;SDS011;62428;51.412;5.432;2023-04-12T04:00:46;2.40;;;0.27;;
74074;SDS011;62428;51.412;5.432;2023-04-12T04:03:13;2.63;;;0.40;;
74074;SDS011;62428;51.412;5.432;2023-04-12T04:05:39;2.97;;;0.30;;
74074;SDS011;62428;51.412;5.432;2023-04-12T04:08:04;1.10;;;0.20;;
74074;SDS011;62428;51.412;5.432;2023-04-12T04:10:31;3.40;;;0.32;;
74074;SDS011;62428;51.412;5.432;2023-04-12T04:12:57;1.52;;;0.40;;
74074;SDS011;62428;51.412;5.432;2023-04-12T04:15:23;2.07;;;0.37;;
74074;SDS011;62428;51.412;5.432;2023-04-12T04:17:49;0.70;;;0.22;;
74074;SDS011;62428;51.412;5.432;2023-04-12T04:20:14;2.33;;;0.43;;
74074;SDS011;62428;51.412;5.432;2023-04-12T04:22:41;0.90;;;0.30;;
74074;SDS011;62428;51.412;5.432;2023-04-12T04:25:07;1.60;;;0.30;;
74074;SDS011;62428;51.412;5.432;2023-04-12T04:27:33;2.05;;;0.30;;
74074;SDS011;62428;51.412;5.432;2023-04-12T04:30:02;3.47;;;0.40;;
74074;SDS011;62428;51.412;5.432;2023-04-12T04:32:30;2.88;;;0.68;;
74074;SDS011;62428;51.412;5.432;2023-04-12T04:34:56;2.15;;;0.40;;
74074;SDS011;62428;51.412;5.432;2023-04-12T04:37:25;2.10;;;0.30;;
74074;SDS011;62428;51.412;5.432;2023-04-12T04:39:52;1.30;;;0.30;;
74074;SDS011;62428;51.412;5.432;2023-04-12T04:42:17;2.65;;;0.40;;
74074;SDS011;62428;51.412;5.432;2023-04-12T04:44:43;3.17;;;0.33;;
74074;SDS011;62428;51.412;5.432;2023-04-12T04:47:09;1.87;;;0.30;;
74074;SDS011;62428;51.412;5.432;2023-04-12T04:49:35;3.97;;;0.40;;
74074;SDS011;62428;51.412;5.432;2023-04-12T04:52:03;3.80;;;0.30;;
74074;SDS011;62428;51.412;5.432;2023-04-12T04:54:29;2.70;;;0.57;;
74074;SDS011;62428;51.412;5.432;2023-04-12T04:56:57;0.82;;;0.30;;
74074;SDS011;62428;51.412;5.432;2023-04-12T04:59:23;2.50;;;0.40;;
74074;SDS011;62428;51.412;5.432;2023-04-12T05:01:50;2.27;;;0.30;;
74074;SDS011;62428;51.412;5.432;2023-04-12T05:04:16;1.38;;;0.32;;
74074;SDS011;62428;51.412;5.432;2023-04-12T05:06:41;2.23;;;0.23;;
74074;SDS011;62428;51.412;5.432;2023-04-12T05:09:07;2.90;;;0.67;;
74074;SDS011;62428;51.412;5.432;2023-04-12T05:11:32;2.73;;;0.40;;
74074;SDS011;62428;51.412;5.432;2023-04-12T05:13:57;3.53;;;0.97;;
74074;SDS011;62428;51.412;5.432;2023-04-12T05:16:22;4.60;;;0.60;;
74074;SDS011;62428;51.412;5.432;2023-04-12T05:18:48;2.97;;;0.40;;
74074;SDS011;62428;51.412;5.432;2023-04-12T05:21:13;3.00;;;0.53;;
74074;SDS011;62428;51.412;5.432;2023-04-12T05:23:43;5.43;;;0.50;;
74074;SDS011;62428;51.412;5.432;2023-04-12T05:26:09;3.03;;;0.50;;
74074;SDS011;62428;51.412;5.432;2023-04-12T05:28:35;2.80;;;0.40;;
74074;SDS011;62428;51.412;5.432;2023-04-12T05:31:00;3.03;;;0.50;;
74074;SDS011;62428;51.412;5.432;2023-04-12T05:33:26;1.70;;;0.50;;
74074;SDS011;62428;51.412;5.432;2023-04-12T05:35:51;2.37;;;0.50;;
74074;SDS011;62428;51.412;5.432;2023-04-12T05:38:16;2.63;;;0.50;;
74074;SDS011;62428;51.412;5.432;2023-04-12T05:40:42;2.57;;;0.60;;
74074;SDS011;62428;51.412;5.432;2023-04-12T05:43:10;4.05;;;0.60;;
74074;SDS011;62428;51.412;5.432;2023-04-12T05:45:37;2.83;;;0.40;;
74074;SDS011;62428;51.412;5.432;2023-04-12T05:48:03;1.85;;;0.47;;
74074;SDS011;62428;51.412;5.432;2023-04-12T05:50:28;2.47;;;0.40;;
74074;SDS011;62428;51.412;5.432;2023-04-12T05:52:54;3.97;;;0.50;;
74074;SDS011;62428;51.412;5.432;2023-04-12T05:55:19;3.17;;;0.80;;
74074;SDS011;62428;51.412;5.432;2023-04-12T05:57:45;2.83;;;0.50;;
74074;SDS011;62428;51.412;5.432;2023-04-12T06:00:11;2.38;;;0.60;;
74074;SDS011;62428;51.412;5.432;2023-04-12T06:02:43;3.00;;;0.50;;
74074;SDS011;62428;51.412;5.432;2023-04-12T06:05:09;2.30;;;0.40;;
74074;SDS011;62428;51.412;5.432;2023-04-12T06:07:35;4.53;;;0.50;;
74074;SDS011;62428;51.412;5.432;2023-04-12T06:10:03;1.15;;;0.40;;
74074;SDS011;62428;51.412;5.432;2023-04-12T06:12:29;1.10;;;0.40;;
74074;SDS011;62428;51.412;5.432;2023-04-12T06:14:54;2.00;;;0.40;;
74074;SDS011;62428;51.412;5.432;2023-04-12T06:17:20;2.72;;;0.50;;
74074;SDS011;62428;51.412;5.432;2023-04-12T06:19:46;1.53;;;0.40;;
74074;SDS011;62428;51.412;5.432;2023-04-12T06:22:11;1.30;;;0.50;;
74074;SDS011;62428;51.412;5.432;2023-04-12T06:24:36;2.40;;;0.50;;
74074;SDS011;62428;51.412;5.432;2023-04-12T06:27:02;2.00;;;0.50;;
74074;SDS011;62428;51.412;5.432;2023-04-12T06:29:27;0.50;;;0.30;;
74074;SDS011;62428;51.412;5.432;2023-04-12T06:31:53;3.15;;;0.50;;
74074;SDS011;62428;51.412;5.432;2023-04-12T06:34:18;1.65;;;0.47;;
74074;SDS011;62428;51.412;5.432;2023-04-12T06:36:43;1.70;;;0.60;;
74074;SDS011;62428;51.412;5.432;2023-04-12T06:39:11;4.82;;;0.60;;
74074;SDS011;62428;51.412;5.432;2023-04-12T06:41:38;1.90;;;0.50;;
74074;SDS011;62428;51.412;5.432;2023-04-12T06:44:03;3.00;;;0.43;;
74074;SDS011;62428;51.412;5.432;2023-04-12T06:46:29;2.50;;;0.40;;
74074;SDS011;62428;51.412;5.432;2023-04-12T06:48:54;1.97;;;0.43;;
74074;SDS011;62428;51.412;5.432;2023-04-12T06:51:19;5.60;;;0.90;;
74074;SDS011;62428;51.412;5.432;2023-04-12T06:53:45;2.90;;;0.55;;
74074;SDS011;62428;51.412;5.432;2023-04-12T06:56:10;3.80;;;0.60;;
74074;SDS011;62428;51.412;5.432;2023-04-12T06:58:35;1.57;;;0.40;;
74074;SDS011;62428;51.412;5.432;2023-04-12T07:01:04;1.83;;;0.50;;
74074;SDS011;62428;51.412;5.432;2023-04-12T07:03:34;1.95;;;0.77;;
74074;SDS011;62428;51.412;5.432;2023-04-12T07:06:00;2.57;;;1.30;;
74074;SDS011;62428;51.412;5.432;2023-04-12T07:08:31;3.42;;;1.50;;
74074;SDS011;62428;51.412;5.432;2023-04-12T07:10:57;4.45;;;1.35;;
74074;SDS011;62428;51.412;5.432;2023-04-12T07:13:22;7.37;;;2.57;;
74074;SDS011;62428;51.412;5.432;2023-04-12T07:15:50;4.33;;;2.17;;
74074;SDS011;62428;51.412;5.432;2023-04-12T07:18:16;5.20;;;1.80;;
74074;SDS011;62428;51.412;5.432;2023-04-12T07:20:42;2.63;;;1.40;;
74074;SDS011;62428;51.412;5.432;2023-04-12T07:23:09;6.32;;;1.60;;
74074;SDS011;62428;51.412;5.432;2023-04-12T07:25:38;2.95;;;1.20;;
74074;SDS011;62428;51.412;5.432;2023-04-12T07:28:03;5.05;;;1.60;;
74074;SDS011;62428;51.412;5.432;2023-04-12T07:30:29;5.82;;;1.80;;
74074;SDS011;62428;51.412;5.432;2023-04-12T07:32:55;4.07;;;1.43;;
74074;SDS011;62428;51.412;5.432;2023-04-12T07:35:20;7.28;;;1.50;;
74074;SDS011;62428;51.412;5.432;2023-04-12T07:37:45;4.07;;;1.85;;
74074;SDS011;62428;51.412;5.432;2023-04-12T07:40:11;5.13;;;1.67;;
74074;SDS011;62428;51.412;5.432;2023-04-12T07:42:36;2.50;;;1.27;;
74074;SDS011;62428;51.412;5.432;2023-04-12T07:45:02;4.80;;;1.53;;
74074;SDS011;62428;51.412;5.432;2023-04-12T07:47:28;5.03;;;1.80;;
74074;SDS011;62428;51.412;5.432;2023-04-12T07:49:53;8.63;;;2.87;;
74074;SDS011;62428;51.412;5.432;2023-04-12T07:52:19;7.65;;;2.70;;
74074;SDS011;62428;51.412;5.432;2023-04-12T07:54:45;8.07;;;2.47;;
74074;SDS011;62428;51.412;5.432;2023-04-12T07:57:10;7.60;;;2.20;;
74074;SDS011;62428;51.412;5.432;2023-04-12T07:59:35;5.45;;;1.65;;
74074;SDS011;62428;51.412;5.432;2023-04-12T08:02:01;3.80;;;1.30;;
74074;SDS011;62428;51.412;5.432;2023-04-12T08:04:27;4.97;;;1.60;;
74074;SDS011;62428;51.412;5.432;2023-04-12T08:06:52;5.18;;;2.70;;
74074;SDS011;62428;51.412;5.432;2023-04-12T08:09:18;4.37;;;2.20;;
74074;SDS011;62428;51.412;5.432;2023-04-12T08:11:44;5.60;;;2.22;;
74074;SDS011;62428;51.412;5.432;2023-04-12T08:14:09;8.73;;;2.53;;
74074;SDS011;62428;51.412;5.432;2023-04-12T08:16:35;6.33;;;2.30;;
74074;SDS011;62428;51.412;5.432;2023-04-12T08:19:00;6.57;;;2.40;;
74074;SDS011;62428;51.412;5.432;2023-04-12T08:21:25;7.10;;;2.58;;
74074;SDS011;62428;51.412;5.432;2023-04-12T08:23:51;8.93;;;2.97;;
74074;SDS011;62428;51.412;5.432;2023-04-12T08:26:17;8.65;;;3.13;;
74074;SDS011;62428;51.412;5.432;2023-04-12T08:28:42;6.53;;;3.07;;
74074;SDS011;62428;51.412;5.432;2023-04-12T08:31:09;7.60;;;3.33;;
74074;SDS011;62428;51.412;5.432;2023-04-12T08:33:35;6.67;;;3.10;;
74074;SDS011;62428;51.412;5.432;2023-04-12T08:36:00;7.32;;;3.95;;
74074;SDS011;62428;51.412;5.432;2023-04-12T08:38:26;8.70;;;3.70;;
74074;SDS011;62428;51.412;5.432;2023-04-12T08:40:51;9.43;;;3.50;;
74074;SDS011;62428;51.412;5.432;2023-04-12T08:43:17;9.53;;;3.67;;
74074;SDS011;62428;51.412;5.432;2023-04-12T08:45:43;9.52;;;4.07;;
74074;SDS011;62428;51.412;5.432;2023-04-12T08:48:08;8.50;;;3.67;;
74074;SDS011;62428;51.412;5.432;2023-04-12T08:50:35;12.63;;;3.75;;
74074;SDS011;62428;51.412;5.432;2023-04-12T08:53:01;7.65;;;3.60;;
74074;SDS011;62428;51.412;5.432;2023-04-12T08:55:26;8.23;;;2.90;;
74074;SDS011;62428;51.412;5.432;2023-04-12T08:57:53;8.95;;;3.28;;
74074;SDS011;62428;51.412;5.432;2023-04-12T09:00:20;9.45;;;3.10;;
74074;SDS011;62428;51.412;5.432;2023-04-12T09:02:46;15.60;;;2.88;;
74074;SDS011;62428;51.412;5.432;2023-04-12T09:05:13;15.75;;;2.70;;
74074;SDS011;62428;51.412;5.432;2023-04-12T09:07:39;9.57;;;2.92;;
74074;SDS011;62428;51.412;5.432;2023-04-12T09:10:05;9.23;;;3.00;;
74074;SDS011;62428;51.412;5.432;2023-04-12T09:12:31;12.60;;;3.40;;
74074;SDS011;62428;51.412;5.432;2023-04-12T09:17:36;20.40;;;3.55;;
74074;SDS011;62428;51.412;5.432;2023-04-12T09:20:07;17.60;;;4.18;;
74074;SDS011;62428;51.412;5.432;2023-04-12T09:22:47;10.75;;;3.78;;
74074;SDS011;62428;51.412;5.432;2023-04-12T09:25:14;20.55;;;4.53;;
74074;SDS011;62428;51.412;5.432;2023-04-12T09:27:46;13.45;;;4.57;;
74074;SDS011;62428;51.412;5.432;2023-04-12T09:30:16;13.15;;;4.03;;
74074;SDS011;62428;51.412;5.432;2023-04-12T09:32:43;18.67;;;4.55;;
74074;SDS011;62428;51.412;5.432;2023-04-12T09:35:09;14.52;;;4.68;;
74074;SDS011;62428;51.412;5.432;2023-04-12T09:37:35;22.20;;;5.05;;
74074;SDS011;62428;51.412;5.432;2023-04-12T09:40:04;9.43;;;3.50;;
74074;SDS011;62428;51.412;5.432;2023-04-12T09:42:34;17.33;;;5.13;;
74074;SDS011;62428;51.412;5.432;2023-04-12T09:45:19;18.27;;;5.00;;
74074;SDS011;62428;51.412;5.432;2023-04-12T09:47:48;18.85;;;5.20;;
74074;SDS011;62428;51.412;5.432;2023-04-12T09:50:20;20.63;;;4.00;;
74074;SDS011;62428;51.412;5.432;2023-04-12T09:52:47;19.05;;;4.18;;
74074;SDS011;62428;51.412;5.432;2023-04-12T09:55:13;19.33;;;3.53;;
74074;SDS011;62428;51.412;5.432;2023-04-12T09:57:40;26.73;;;4.72;;
74074;SDS011;62428;51.412;5.432;2023-04-12T10:00:07;17.38;;;3.70;;
74074;SDS011;62428;51.412;5.432;2023-04-12T10:02:41;17.23;;;3.70;;
74074;SDS011;62428;51.412;5.432;2023-04-12T10:05:09;14.17;;;3.50;;
74074;SDS011;62428;51.412;5.432;2023-04-12T10:07:38;20.83;;;4.65;;
74074;SDS011;62428;51.412;5.432;2023-04-12T10:10:07;17.75;;;3.45;;
74074;SDS011;62428;51.412;5.432;2023-04-12T10:12:36;14.10;;;2.90;;
74074;SDS011;62428;51.412;5.432;2023-04-12T10:15:03;13.70;;;3.47;;
74074;SDS011;62428;51.412;5.432;2023-04-12T10:17:36;16.47;;;3.20;;
74074;SDS011;62428;51.412;5.432;2023-04-12T10:20:08;17.13;;;3.25;;
74074;SDS011;62428;51.412;5.432;2023-04-12T10:22:34;10.70;;;2.70;;
74074;SDS011;62428;51.412;5.432;2023-04-12T10:25:00;11.18;;;2.75;;
74074;SDS011;62428;51.412;5.432;2023-04-12T10:27:26;13.43;;;3.10;;
74074;SDS011;62428;51.412;5.432;2023-04-12T10:29:52;15.17;;;2.77;;
74074;SDS011;62428;51.412;5.432;2023-04-12T10:32:21;17.33;;;3.45;;
74074;SDS011;62428;51.412;5.432;2023-04-12T10:34:51;12.73;;;2.63;;
74074;SDS011;62428;51.412;5.432;2023-04-12T10:37:18;14.38;;;3.38;;
74074;SDS011;62428;51.412;5.432;2023-04-12T10:39:45;16.80;;;3.55;;
74074;SDS011;62428;51.412;5.432;2023-04-12T10:42:17;15.95;;;3.85;;
74074;SDS011;62428;51.412;5.432;2023-04-12T10:44:56;15.83;;;3.40;;
74074;SDS011;62428;51.412;5.432;2023-04-12T10:55:37;15.98;;;3.40;;
74074;SDS011;62428;51.412;5.432;2023-04-12T10:58:03;11.33;;;3.20;;
74074;SDS011;62428;51.412;5.432;2023-04-12T11:03:23;10.33;;;2.83;;
74074;SDS011;62428;51.412;5.432;2023-04-12T11:05:59;15.55;;;2.90;;
74074;SDS011;62428;51.412;5.432;2023-04-12T11:08:29;13.35;;;2.67;;
74074;SDS011;62428;51.412;5.432;2023-04-12T11:10:59;13.60;;;2.35;;
74074;SDS011;62428;51.412;5.432;2023-04-12T11:13:27;9.00;;;2.25;;
74074;SDS011;62428;51.412;5.432;2023-04-12T11:15:53;7.20;;;1.73;;
74074;SDS011;62428;51.412;5.432;2023-04-12T11:18:23;11.30;;;2.25;;
74074;SDS011;62428;51.412;5.432;2023-04-12T11:20:50;15.70;;;2.28;;
74074;SDS011;62428;51.412;5.432;2023-04-12T11:23:17;13.10;;;2.30;;
74074;SDS011;62428;51.412;5.432;2023-04-12T11:25:42;8.47;;;2.00;;
74074;SDS011;62428;51.412;5.432;2023-04-12T11:28:15;14.00;;;2.00;;
74074;SDS011;62428;51.412;5.432;2023-04-12T11:30:48;10.77;;;2.30;;
74074;SDS011;62428;51.412;5.432;2023-04-12T11:36:15;13.40;;;1.55;;
74074;SDS011;62428;51.412;5.432;2023-04-12T11:38:41;12.70;;;1.55;;
74074;SDS011;62428;51.412;5.432;2023-04-12T11:41:09;9.95;;;1.80;;
74074;SDS011;62428;51.412;5.432;2023-04-12T11:43:35;11.15;;;2.30;;
74074;SDS011;62428;51.412;5.432;2023-04-12T11:46:04;13.25;;;2.20;;
74074;SDS011;62428;51.412;5.432;2023-04-12T11:48:29;10.05;;;2.25;;
74074;SDS011;62428;51.412;5.432;2023-04-12T11:50:56;8.65;;;2.75;;
74074;SDS011;62428;51.412;5.432;2023-04-12T11:53:26;15.02;;;2.60;;
74074;SDS011;62428;51.412;5.432;2023-04-12T11:55:55;14.80;;;2.53;;
74074;SDS011;62428;51.412;5.432;2023-04-12T11:58:22;18.30;;;2.30;;
74074;SDS011;62428;51.412;5.432;2023-04-12T12:00:51;13.10;;;2.28;;
74074;SDS011;62428;51.412;5.432;2023-04-12T12:03:17;16.58;;;2.67;;
74074;SDS011;62428;51.412;5.432;2023-04-12T12:05:43;14.63;;;3.47;;
74074;SDS011;62428;51.412;5.432;2023-04-12T12:08:09;17.77;;;4.27;;
74074;SDS011;62428;51.412;5.432;2023-04-12T12:10:36;14.20;;;3.38;;
74074;SDS011;62428;51.412;5.432;2023-04-12T12:13:08;23.45;;;4.32;;
74074;SDS011;62428;51.412;5.432;2023-04-12T12:15:35;14.07;;;2.13;;
74074;SDS011;62428;51.412;5.432;2023-04-12T12:18:00;16.48;;;2.45;;
74074;SDS011;62428;51.412;5.432;2023-04-12T12:20:28;9.82;;;2.33;;
74074;SDS011;62428;51.412;5.432;2023-04-12T12:22:53;11.60;;;1.97;;
74074;SDS011;62428;51.412;5.432;2023-04-12T12:25:19;14.43;;;2.70;;
74074;SDS011;62428;51.412;5.432;2023-04-12T12:27:44;13.20;;;2.47;;
74074;SDS011;62428;51.412;5.432;2023-04-12T12:30:17;11.27;;;2.00;;
74074;SDS011;62428;51.412;5.432;2023-04-12T12:32:45;14.70;;;2.87;;
74074;SDS011;62428;51.412;5.432;2023-04-12T12:35:14;14.65;;;2.83;;
74074;SDS011;62428;51.412;5.432;2023-04-12T12:37:49;14.20;;;2.60;;
74074;SDS011;62428;51.412;5.432;2023-04-12T12:40:16;12.05;;;2.38;;
74074;SDS011;62428;51.412;5.432;2023-04-12T12:42:44;12.30;;;2.35;;
74074;SDS011;62428;51.412;5.432;2023-04-12T12:45:10;8.93;;;2.17;;
74074;SDS011;62428;51.412;5.432;2023-04-12T12:47:53;9.20;;;1.95;;
74074;SDS011;62428;51.412;5.432;2023-04-12T12:50:22;7.95;;;1.83;;
74074;SDS011;62428;51.412;5.432;2023-04-12T12:52:49;8.98;;;1.73;;
74074;SDS011;62428;51.412;5.432;2023-04-12T12:55:16;8.13;;;1.98;;
74074;SDS011;62428;51.412;5.432;2023-04-12T12:57:42;9.23;;;2.30;;
74074;SDS011;62428;51.412;5.432;2023-04-12T13:00:09;9.38;;;2.38;;
74074;SDS011;62428;51.412;5.432;2023-04-12T13:02:37;8.32;;;2.97;;
74074;SDS011;62428;51.412;5.432;2023-04-12T13:05:03;10.93;;;2.08;;
74074;SDS011;62428;51.412;5.432;2023-04-12T13:07:29;13.65;;;2.53;;
74074;SDS011;62428;51.412;5.432;2023-04-12T13:09:55;9.23;;;3.13;;
74074;SDS011;62428;51.412;5.432;2023-04-12T13:12:20;19.10;;;3.23;;
74074;SDS011;62428;51.412;5.432;2023-04-12T13:14:46;14.27;;;3.30;;
74074;SDS011;62428;51.412;5.432;2023-04-12T13:17:12;7.25;;;2.15;;
74074;SDS011;62428;51.412;5.432;2023-04-12T13:19:37;14.33;;;2.50;;
74074;SDS011;62428;51.412;5.432;2023-04-12T13:22:02;8.67;;;2.10;;
74074;SDS011;62428;51.412;5.432;2023-04-12T13:24:28;6.47;;;1.63;;
74074;SDS011;62428;51.412;5.432;2023-04-12T13:26:53;4.13;;;1.00;;
74074;SDS011;62428;51.412;5.432;2023-04-12T13:29:18;9.47;;;1.27;;
74074;SDS011;62428;51.412;5.432;2023-04-12T13:31:43;5.43;;;0.90;;
74074;SDS011;62428;51.412;5.432;2023-04-12T13:34:09;3.80;;;0.97;;
74074;SDS011;62428;51.412;5.432;2023-04-12T13:36:34;3.27;;;0.73;;
74074;SDS011;62428;51.412;5.432;2023-04-12T13:39:00;5.27;;;1.17;;
74074;SDS011;62428;51.412;5.432;2023-04-12T13:41:25;4.70;;;0.80;;
74074;SDS011;62428;51.412;5.432;2023-04-12T13:43:50;5.10;;;0.97;;
74074;SDS011;62428;51.412;5.432;2023-04-12T13:46:15;5.70;;;1.20;;
74074;SDS011;62428;51.412;5.432;2023-04-12T13:48:41;4.13;;;1.35;;
74074;SDS011;62428;51.412;5.432;2023-04-12T13:51:07;6.07;;;1.27;;
74074;SDS011;62428;51.412;5.432;2023-04-12T13:53:32;4.07;;;1.17;;
74074;SDS011;62428;51.412;5.432;2023-04-12T13:55:58;6.70;;;1.40;;
74074;SDS011;62428;51.412;5.432;2023-04-12T13:58:23;4.10;;;1.10;;
74074;SDS011;62428;51.412;5.432;2023-04-12T14:00:49;3.97;;;0.98;;
74074;SDS011;62428;51.412;5.432;2023-04-12T14:03:17;5.00;;;0.68;;
74074;SDS011;62428;51.412;5.432;2023-04-12T14:05:43;2.90;;;0.60;;
74074;SDS011;62428;51.412;5.432;2023-04-12T14:08:08;2.50;;;0.80;;
74074;SDS011;62428;51.412;5.432;2023-04-12T14:10:33;4.90;;;0.90;;
74074;SDS011;62428;51.412;5.432;2023-04-12T14:12:59;7.83;;;0.57;;
74074;SDS011;62428;51.412;5.432;2023-04-12T14:15:24;6.30;;;1.00;;
74074;SDS011;62428;51.412;5.432;2023-04-12T14:17:49;4.77;;;0.80;;
74074;SDS011;62428;51.412;5.432;2023-04-12T14:20:15;1.77;;;0.77;;
74074;SDS011;62428;51.412;5.432;2023-04-12T14:22:40;2.30;;;0.60;;
74074;SDS011;62428;51.412;5.432;2023-04-12T14:25:06;2.67;;;0.83;;
74074;SDS011;62428;51.412;5.432;2023-04-12T14:27:32;5.68;;;0.88;;
74074;SDS011;62428;51.412;5.432;2023-04-12T14:29:59;2.88;;;0.70;;
74074;SDS011;62428;51.412;5.432;2023-04-12T14:32:24;4.53;;;1.43;;
74074;SDS011;62428;51.412;5.432;2023-04-12T14:34:50;8.63;;;1.10;;
74074;SDS011;62428;51.412;5.432;2023-04-12T14:37:15;5.47;;;1.53;;
74074;SDS011;62428;51.412;5.432;2023-04-12T14:39:41;7.70;;;1.50;;
74074;SDS011;62428;51.412;5.432;2023-04-12T14:42:06;5.17;;;1.50;;
74074;SDS011;62428;51.412;5.432;2023-04-12T14:44:32;5.80;;;1.63;;
74074;SDS011;62428;51.412;5.432;2023-04-12T14:46:57;7.33;;;2.10;;
74074;SDS011;62428;51.412;5.432;2023-04-12T14:49:23;7.82;;;1.60;;
74074;SDS011;62428;51.412;5.432;2023-04-12T14:51:48;7.07;;;1.07;;
74074;SDS011;62428;51.412;5.432;2023-04-12T14:54:13;3.07;;;0.80;;
74074;SDS011;62428;51.412;5.432;2023-04-12T14:56:39;2.20;;;0.50;;
74074;SDS011;62428;51.412;5.432;2023-04-12T14:59:04;1.88;;;0.63;;
74074;SDS011;62428;51.412;5.432;2023-04-12T15:01:30;3.00;;;0.77;;
74074;SDS011;62428;51.412;5.432;2023-04-12T15:03:55;2.83;;;0.70;;
74074;SDS011;62428;51.412;5.432;2023-04-12T15:06:21;3.93;;;0.90;;
74074;SDS011;62428;51.412;5.432;2023-04-12T15:08:48;1.45;;;0.60;;